Flight Track Log - Related Links

Times and Time Zones

All times are in EDT time to prevent confusion due to time zone crossing. See the N92PS flight status page for this flight to view local times or setup timezone preferences in your user account.

Time Position Orientation Groundspeed Altitude Reporting Facility
EDT Latitude Longitude Course Direction KTS MPH feet Rate Location/Type
Mon 08:46:29 PM 40.2631 -79.7314 55° Northeast 134 154 3,400  Level Cleveland Center
Mon 08:47:31 PM 40.3006 -79.7008 32° Northeast 147 169 4,500 968 Climbing Cleveland Center
Mon 08:48:33 PM 40.3103 -79.6533 75° East 141 162 5,400 871 Climbing Cleveland Center
Mon 08:49:35 PM 40.3297 -79.6053 62° Northeast 146 168 6,300 871 Climbing Cleveland Center
Mon 08:50:37 PM 40.3483 -79.5581 63° Northeast 146 168 7,200 919 Climbing Cleveland Center
Mon 08:51:39 PM 40.3619 -79.5125 69° East 142 163 8,200 829 Climbing Cleveland Center
Mon 08:52:40 PM 40.3778 -79.4653 66° East 140 161 8,900 780 Climbing Cleveland Center
Mon 08:53:42 PM 40.3992 -79.4069 64° Northeast 143 165 9,800 823 Climbing Cleveland Center
Mon 08:54:44 PM 40.4150 -79.3567 68° East 145 167 10,600 629 Climbing Cleveland Center
Mon 08:55:46 PM 40.4314 -79.3053 67° East 150 173 11,100 195 Climbing Cleveland Center
Mon 08:56:47 PM 40.4519 -79.2400 68° East 171 197 11,000 -49 Descending Cleveland Center
Mon 08:57:49 PM 40.4753 -79.1822 62° Northeast 177 204 11,000  Level Cleveland Center
Mon 08:58:51 PM 40.4958 -79.1231 65° Northeast 178 205 11,000  Level Cleveland Center
Mon 08:59:53 PM 40.5119 -79.0597 71° East 180 207 11,000  Level Cleveland Center
Mon 09:00:55 PM 40.5367 -79.0028 60° Northeast 181 208 11,000 49 Level Cleveland Center
Mon 09:01:56 PM 40.5617 -78.9308 65° Northeast 182 209 11,100  Climbing Cleveland Center
Mon 09:02:58 PM 40.5814 -78.8708 67° East 181 208 11,000  Descending Cleveland Center
Mon 09:03:59 PM 40.6019 -78.8092 66° East 182 209 11,100  Climbing Cleveland Center
Mon 09:05:01 PM 40.6200 -78.7492 68° East 182 209 11,000  Descending Cleveland Center
Mon 09:06:03 PM 40.6411 -78.6878 66° East 183 211 11,100 48 Climbing Cleveland Center
Mon 09:07:05 PM 40.6628 -78.6286 64° Northeast 183 211 11,100 -49 Level Cleveland Center
Mon 09:08:06 PM 40.6869 -78.5550 67° East 183 211 11,000 -36 Descending Cleveland Center
Mon 09:09:52 PM 40.7247 -78.4528 64° Northeast 187 215 11,000 32 Level New York Center
Mon 09:11:12 PM 40.7481 -78.3708 69° East 185 213 11,100  Climbing Cleveland Center
Mon 09:12:14 PM 40.7672 -78.3092 68° East 185 213 11,000 -49 Descending Cleveland Center
Mon 09:13:15 PM 40.7917 -78.2364 66° East 184 212 11,000 49 Level Cleveland Center
Mon 09:14:17 PM 40.8161 -78.1783 61° Northeast 184 212 11,100 48 Climbing Cleveland Center
Mon 09:15:19 PM 40.8364 -78.1169 66° East 184 212 11,100 -39 Level Cleveland Center
Mon 09:16:51 PM 40.8686 -78.0186 67° East 187 215 11,000 -49 Descending New York Center
Mon 09:17:22 PM 40.8769 -77.9933 66° East 184 212 11,000  Level Cleveland Center
Mon 09:18:24 PM 40.9036 -77.9217 64° Northeast 184 212 11,000 48 Level Cleveland Center
Mon 09:19:26 PM 40.9258 -77.8600 64° Northeast 186 214 11,100 49 Climbing Cleveland Center
Mon 09:20:27 PM 40.9475 -77.8000 64° Northeast 185 213 11,100 -49 Level Cleveland Center
Mon 09:21:29 PM 40.9631 -77.7339 73° East 186 214 11,000  Descending Cleveland Center
Mon 09:22:31 PM 40.9806 -77.6692 70° East 187 215 11,100  Climbing Cleveland Center
Mon 09:23:32 PM 41.0025 -77.6069 65° Northeast 187 215 11,000 -49 Descending Cleveland Center
Mon 09:24:34 PM 41.0289 -77.5350 64° Northeast 186 214 11,000 30 Level Cleveland Center
Mon 09:26:54 PM 41.0717 -77.3989 67° East 187 215 11,100 30 Climbing New York Center
Mon 09:27:54 PM 41.0967 -77.3242 66° East 187 215 11,100  Level New York Center
Mon 09:28:53 PM 41.1144 -77.2653 68° East 187 215 11,100  Level New York Center
Mon 09:29:51 PM 41.1347 -77.2011 67° East 187 215 11,100  Level New York Center
Mon 09:30:53 PM 41.1569 -77.1369 65° Northeast 187 215 11,100  Level New York Center
Mon 09:32:53 PM 41.1950 -77.0083 68° East 187 215 11,100  Level New York Center
Mon 09:33:53 PM 41.2131 -76.9436 70° East 187 215 11,100  Level New York Center
Mon 09:34:51 PM 41.2308 -76.8792 70° East 187 215 11,100  Level New York Center
Mon 09:35:51 PM 41.2531 -76.8147 65° Northeast 187 215 11,100  Level New York Center
Mon 09:36:52 PM 41.2728 -76.7503 68° East 187 215 11,100 -300 Level New York Center
Mon 09:37:51 PM 41.2931 -76.6831 68° East 187 215 10,500 -950 Descending New York Center
Mon 09:38:52 PM 41.3133 -76.6103 70° East 209 241 9,200 -1,250 Descending New York Center
Mon 09:39:51 PM 41.3403 -76.5269 67° East 220 253 8,000 -1,140 Descending New York Center
Mon 09:40:53 PM 41.3664 -76.4572 63° Northeast 220 253 6,900 -956 Descending New York Center
Mon 09:42:53 PM 41.4125 -76.3200 66° East 210 242 5,100 -704 Descending New York Center
Mon 09:43:52 PM 41.4322 -76.2581 67° East 192 221 4,800 -458 Descending New York Center
Mon 09:44:51 PM 41.4519 -76.1878 69° East 187 215 4,200 -353 Descending New York Center
Mon 09:45:51 PM 41.4714 -76.1256 67° East 177 204 4,100 -50 Descending New York Center
Mon 09:46:51 PM 41.4883 -76.0769 65° Northeast 167 192 4,100 -49 Level New York Center
Mon 09:47:54 PM 41.5053 -76.0231 67° East 162 186 4,000 -298 Descending New York Center
Mon 09:48:52 PM 41.5181 -75.9686 73° East 157 181 3,500 -564 Descending New York Center
Mon 09:49:51 PM 41.5494 -75.9156 52° Northeast 157 181 2,900 -450 Descending New York Center
Mon 09:50:52 PM 41.5933 -75.9161 359° North 141 162 2,600 -344 Descending New York Center
Mon 09:51:53 PM 41.5839 -75.9403 242° Southwest 75 86 2,200 -393 Descending New York Center
Mon 09:53:00 PM 41.5288 -75.9346 176° South  Level FlightAware Approximate

Login

Don't have an account? Register now (free) for customized features, flight alerts, and more!